sensor_id;sensor_type;location;lat;lon;timestamp;P1;durP1;ratioP1;P2;durP2;ratioP2
22441;SDS011;11388;54.456;9.752;2023-12-04T00:02:16;20.70;;;14.98;;
22441;SDS011;11388;54.456;9.752;2023-12-04T00:04:42;19.63;;;14.60;;
22441;SDS011;11388;54.456;9.752;2023-12-04T00:07:08;19.70;;;14.23;;
22441;SDS011;11388;54.456;9.752;2023-12-04T00:09:34;20.85;;;14.63;;
22441;SDS011;11388;54.456;9.752;2023-12-04T00:11:59;20.65;;;14.70;;
22441;SDS011;11388;54.456;9.752;2023-12-04T00:14:25;20.63;;;14.57;;
22441;SDS011;11388;54.456;9.752;2023-12-04T00:16:51;21.02;;;15.80;;
22441;SDS011;11388;54.456;9.752;2023-12-04T00:19:16;20.60;;;14.73;;
22441;SDS011;11388;54.456;9.752;2023-12-04T00:21:42;21.92;;;15.32;;
22441;SDS011;11388;54.456;9.752;2023-12-04T00:24:11;19.95;;;15.18;;
22441;SDS011;11388;54.456;9.752;2023-12-04T00:26:57;21.08;;;15.50;;
22441;SDS011;11388;54.456;9.752;2023-12-04T00:29:23;21.70;;;15.82;;
22441;SDS011;11388;54.456;9.752;2023-12-04T00:31:48;23.58;;;16.63;;
22441;SDS011;11388;54.456;9.752;2023-12-04T00:34:14;21.08;;;15.10;;
22441;SDS011;11388;54.456;9.752;2023-12-04T00:36:40;22.75;;;15.80;;
22441;SDS011;11388;54.456;9.752;2023-12-04T00:39:06;22.92;;;15.98;;
22441;SDS011;11388;54.456;9.752;2023-12-04T00:41:31;22.48;;;15.95;;
22441;SDS011;11388;54.456;9.752;2023-12-04T00:43:58;21.88;;;15.35;;
22441;SDS011;11388;54.456;9.752;2023-12-04T00:46:24;20.92;;;15.63;;
22441;SDS011;11388;54.456;9.752;2023-12-04T00:48:50;25.02;;;15.68;;
22441;SDS011;11388;54.456;9.752;2023-12-04T00:51:16;22.08;;;15.45;;
22441;SDS011;11388;54.456;9.752;2023-12-04T00:53:42;22.05;;;15.07;;
22441;SDS011;11388;54.456;9.752;2023-12-04T00:56:08;22.10;;;15.20;;
22441;SDS011;11388;54.456;9.752;2023-12-04T00:58:37;23.45;;;15.95;;
22441;SDS011;11388;54.456;9.752;2023-12-04T01:01:03;22.30;;;15.85;;
22441;SDS011;11388;54.456;9.752;2023-12-04T01:03:29;23.70;;;16.17;;
22441;SDS011;11388;54.456;9.752;2023-12-04T01:05:58;22.27;;;15.40;;
22441;SDS011;11388;54.456;9.752;2023-12-04T01:08:24;23.10;;;16.15;;
22441;SDS011;11388;54.456;9.752;2023-12-04T01:10:50;23.35;;;16.40;;
22441;SDS011;11388;54.456;9.752;2023-12-04T01:13:15;25.17;;;16.42;;
22441;SDS011;11388;54.456;9.752;2023-12-04T01:15:41;23.27;;;16.00;;
22441;SDS011;11388;54.456;9.752;2023-12-04T01:18:07;23.20;;;15.98;;
22441;SDS011;11388;54.456;9.752;2023-12-04T01:20:33;23.02;;;15.77;;
22441;SDS011;11388;54.456;9.752;2023-12-04T01:23:02;25.23;;;15.88;;
22441;SDS011;11388;54.456;9.752;2023-12-04T01:25:31;23.10;;;16.02;;
22441;SDS011;11388;54.456;9.752;2023-12-04T01:28:00;24.65;;;16.38;;
22441;SDS011;11388;54.456;9.752;2023-12-04T01:30:28;26.23;;;17.20;;
22441;SDS011;11388;54.456;9.752;2023-12-04T01:32:54;22.83;;;16.17;;
22441;SDS011;11388;54.456;9.752;2023-12-04T01:35:20;26.17;;;16.60;;
22441;SDS011;11388;54.456;9.752;2023-12-04T01:37:45;24.75;;;16.85;;
22441;SDS011;11388;54.456;9.752;2023-12-04T01:40:11;22.48;;;16.17;;
22441;SDS011;11388;54.456;9.752;2023-12-04T01:42:37;21.25;;;15.35;;
22441;SDS011;11388;54.456;9.752;2023-12-04T01:45:03;23.15;;;16.05;;
22441;SDS011;11388;54.456;9.752;2023-12-04T01:47:30;22.10;;;15.65;;
22441;SDS011;11388;54.456;9.752;2023-12-04T01:49:56;23.25;;;16.13;;
22441;SDS011;11388;54.456;9.752;2023-12-04T01:52:22;25.38;;;16.80;;
22441;SDS011;11388;54.456;9.752;2023-12-04T01:54:47;24.65;;;15.90;;
22441;SDS011;11388;54.456;9.752;2023-12-04T01:57:13;24.25;;;16.75;;
22441;SDS011;11388;54.456;9.752;2023-12-04T01:59:39;24.17;;;16.13;;
22441;SDS011;11388;54.456;9.752;2023-12-04T02:02:05;23.85;;;16.65;;
22441;SDS011;11388;54.456;9.752;2023-12-04T02:04:30;27.17;;;18.52;;
22441;SDS011;11388;54.456;9.752;2023-12-04T02:06:57;23.98;;;16.40;;
22441;SDS011;11388;54.456;9.752;2023-12-04T02:09:24;24.73;;;16.17;;
22441;SDS011;11388;54.456;9.752;2023-12-04T02:11:50;23.05;;;16.13;;
22441;SDS011;11388;54.456;9.752;2023-12-04T02:14:18;24.08;;;16.42;;
22441;SDS011;11388;54.456;9.752;2023-12-04T02:16:43;24.60;;;16.02;;
22441;SDS011;11388;54.456;9.752;2023-12-04T02:19:13;24.45;;;16.38;;
22441;SDS011;11388;54.456;9.752;2023-12-04T02:21:43;23.17;;;15.85;;
22441;SDS011;11388;54.456;9.752;2023-12-04T02:24:08;21.13;;;15.23;;
22441;SDS011;11388;54.456;9.752;2023-12-04T02:26:37;24.25;;;15.27;;
22441;SDS011;11388;54.456;9.752;2023-12-04T02:29:11;23.73;;;15.38;;
22441;SDS011;11388;54.456;9.752;2023-12-04T02:31:46;21.15;;;14.48;;
22441;SDS011;11388;54.456;9.752;2023-12-04T02:34:13;22.52;;;14.95;;
22441;SDS011;11388;54.456;9.752;2023-12-04T02:36:40;22.95;;;15.25;;
22441;SDS011;11388;54.456;9.752;2023-12-04T02:39:07;23.85;;;15.32;;
22441;SDS011;11388;54.456;9.752;2023-12-04T02:41:36;22.83;;;15.15;;
22441;SDS011;11388;54.456;9.752;2023-12-04T02:44:06;21.48;;;14.90;;
22441;SDS011;11388;54.456;9.752;2023-12-04T02:46:32;22.42;;;14.88;;
22441;SDS011;11388;54.456;9.752;2023-12-04T02:48:58;22.08;;;14.65;;
22441;SDS011;11388;54.456;9.752;2023-12-04T02:51:24;23.10;;;14.65;;
22441;SDS011;11388;54.456;9.752;2023-12-04T02:53:51;22.80;;;14.77;;
22441;SDS011;11388;54.456;9.752;2023-12-04T02:56:19;20.88;;;14.57;;
22441;SDS011;11388;54.456;9.752;2023-12-04T02:58:45;24.65;;;14.82;;
22441;SDS011;11388;54.456;9.752;2023-12-04T03:01:11;20.25;;;13.90;;
22441;SDS011;11388;54.456;9.752;2023-12-04T03:03:40;21.20;;;14.30;;
22441;SDS011;11388;54.456;9.752;2023-12-04T03:06:05;19.95;;;13.65;;
22441;SDS011;11388;54.456;9.752;2023-12-04T03:08:31;19.83;;;13.60;;
22441;SDS011;11388;54.456;9.752;2023-12-04T03:10:57;21.40;;;13.55;;
22441;SDS011;11388;54.456;9.752;2023-12-04T03:13:23;19.35;;;13.55;;
22441;SDS011;11388;54.456;9.752;2023-12-04T03:15:49;19.35;;;13.27;;
22441;SDS011;11388;54.456;9.752;2023-12-04T03:18:14;19.00;;;13.32;;
22441;SDS011;11388;54.456;9.752;2023-12-04T03:20:40;19.45;;;12.57;;
22441;SDS011;11388;54.456;9.752;2023-12-04T03:25:36;22.58;;;14.32;;
22441;SDS011;11388;54.456;9.752;2023-12-04T03:28:01;18.85;;;12.88;;
22441;SDS011;11388;54.456;9.752;2023-12-04T03:30:27;21.52;;;13.52;;
22441;SDS011;11388;54.456;9.752;2023-12-04T03:32:53;19.75;;;12.35;;
22441;SDS011;11388;54.456;9.752;2023-12-04T03:35:19;20.60;;;12.77;;
22441;SDS011;11388;54.456;9.752;2023-12-04T03:37:45;21.55;;;13.90;;
22441;SDS011;11388;54.456;9.752;2023-12-04T03:40:11;19.77;;;12.93;;
22441;SDS011;11388;54.456;9.752;2023-12-04T03:42:37;20.45;;;13.70;;
22441;SDS011;11388;54.456;9.752;2023-12-04T03:45:03;19.13;;;13.10;;
22441;SDS011;11388;54.456;9.752;2023-12-04T03:47:29;20.70;;;13.50;;
22441;SDS011;11388;54.456;9.752;2023-12-04T03:49:54;22.10;;;13.75;;
22441;SDS011;11388;54.456;9.752;2023-12-04T03:52:22;21.13;;;13.27;;
22441;SDS011;11388;54.456;9.752;2023-12-04T03:54:48;18.08;;;12.40;;
22441;SDS011;11388;54.456;9.752;2023-12-04T03:57:14;20.50;;;13.68;;
22441;SDS011;11388;54.456;9.752;2023-12-04T03:59:40;21.23;;;13.52;;
22441;SDS011;11388;54.456;9.752;2023-12-04T04:02:05;21.92;;;13.23;;
22441;SDS011;11388;54.456;9.752;2023-12-04T04:04:31;18.65;;;12.35;;
22441;SDS011;11388;54.456;9.752;2023-12-04T04:06:57;18.23;;;12.63;;
22441;SDS011;11388;54.456;9.752;2023-12-04T04:09:23;17.60;;;12.00;;
22441;SDS011;11388;54.456;9.752;2023-12-04T04:11:48;18.23;;;12.40;;
22441;SDS011;11388;54.456;9.752;2023-12-04T04:14:14;17.52;;;12.68;;
22441;SDS011;11388;54.456;9.752;2023-12-04T04:16:40;18.67;;;12.95;;
22441;SDS011;11388;54.456;9.752;2023-12-04T04:19:06;20.02;;;13.27;;
22441;SDS011;11388;54.456;9.752;2023-12-04T04:21:32;18.30;;;12.63;;
22441;SDS011;11388;54.456;9.752;2023-12-04T04:24:00;21.13;;;13.27;;
22441;SDS011;11388;54.456;9.752;2023-12-04T04:26:26;20.60;;;13.23;;
22441;SDS011;11388;54.456;9.752;2023-12-04T04:28:52;18.83;;;12.57;;
22441;SDS011;11388;54.456;9.752;2023-12-04T04:31:18;19.40;;;12.80;;
22441;SDS011;11388;54.456;9.752;2023-12-04T04:33:43;19.73;;;12.52;;
22441;SDS011;11388;54.456;9.752;2023-12-04T04:36:09;21.48;;;13.10;;
22441;SDS011;11388;54.456;9.752;2023-12-04T04:38:36;16.90;;;11.45;;
22441;SDS011;11388;54.456;9.752;2023-12-04T04:41:12;18.55;;;12.70;;
22441;SDS011;11388;54.456;9.752;2023-12-04T04:43:41;17.30;;;11.82;;
22441;SDS011;11388;54.456;9.752;2023-12-04T04:46:07;19.90;;;12.93;;
22441;SDS011;11388;54.456;9.752;2023-12-04T04:48:33;19.23;;;13.13;;
22441;SDS011;11388;54.456;9.752;2023-12-04T04:50:59;21.33;;;13.40;;
22441;SDS011;11388;54.456;9.752;2023-12-04T04:53:28;19.48;;;12.80;;
22441;SDS011;11388;54.456;9.752;2023-12-04T04:55:54;20.02;;;13.00;;
22441;SDS011;11388;54.456;9.752;2023-12-04T04:58:19;19.85;;;13.18;;
22441;SDS011;11388;54.456;9.752;2023-12-04T05:00:45;19.48;;;13.07;;
22441;SDS011;11388;54.456;9.752;2023-12-04T05:06:34;19.42;;;13.15;;
22441;SDS011;11388;54.456;9.752;2023-12-04T05:09:00;19.85;;;12.93;;
22441;SDS011;11388;54.456;9.752;2023-12-04T05:11:25;18.88;;;12.25;;
22441;SDS011;11388;54.456;9.752;2023-12-04T05:13:51;20.42;;;13.07;;
22441;SDS011;11388;54.456;9.752;2023-12-04T05:16:17;17.88;;;12.20;;
22441;SDS011;11388;54.456;9.752;2023-12-04T05:18:42;19.27;;;12.23;;
22441;SDS011;11388;54.456;9.752;2023-12-04T05:21:11;18.42;;;11.70;;
22441;SDS011;11388;54.456;9.752;2023-12-04T05:23:37;16.60;;;10.88;;
22441;SDS011;11388;54.456;9.752;2023-12-04T05:26:04;18.75;;;12.50;;
22441;SDS011;11388;54.456;9.752;2023-12-04T05:28:31;19.27;;;11.90;;
22441;SDS011;11388;54.456;9.752;2023-12-04T05:30:57;19.65;;;12.10;;
22441;SDS011;11388;54.456;9.752;2023-12-04T05:33:23;16.50;;;11.30;;
22441;SDS011;11388;54.456;9.752;2023-12-04T05:35:48;19.75;;;12.25;;
22441;SDS011;11388;54.456;9.752;2023-12-04T05:38:16;18.13;;;11.95;;
22441;SDS011;11388;54.456;9.752;2023-12-04T05:40:42;20.63;;;12.80;;
22441;SDS011;11388;54.456;9.752;2023-12-04T05:43:08;18.60;;;13.02;;
22441;SDS011;11388;54.456;9.752;2023-12-04T05:45:34;19.90;;;12.77;;
22441;SDS011;11388;54.456;9.752;2023-12-04T05:48:00;17.52;;;11.68;;
22441;SDS011;11388;54.456;9.752;2023-12-04T05:50:26;18.75;;;12.25;;
22441;SDS011;11388;54.456;9.752;2023-12-04T05:52:52;21.13;;;12.38;;
22441;SDS011;11388;54.456;9.752;2023-12-04T05:55:17;18.95;;;13.02;;
22441;SDS011;11388;54.456;9.752;2023-12-04T05:57:43;18.95;;;12.30;;
22441;SDS011;11388;54.456;9.752;2023-12-04T06:00:12;17.95;;;11.35;;
22441;SDS011;11388;54.456;9.752;2023-12-04T06:02:42;19.23;;;12.07;;
22441;SDS011;11388;54.456;9.752;2023-12-04T06:05:08;18.20;;;11.25;;
22441;SDS011;11388;54.456;9.752;2023-12-04T06:07:34;18.65;;;12.13;;
22441;SDS011;11388;54.456;9.752;2023-12-04T06:10:03;21.38;;;13.48;;
22441;SDS011;11388;54.456;9.752;2023-12-04T06:12:30;19.52;;;11.70;;
22441;SDS011;11388;54.456;9.752;2023-12-04T06:14:56;18.40;;;11.93;;
22441;SDS011;11388;54.456;9.752;2023-12-04T06:17:23;17.20;;;11.57;;
22441;SDS011;11388;54.456;9.752;2023-12-04T06:19:49;17.30;;;11.40;;
22441;SDS011;11388;54.456;9.752;2023-12-04T06:22:15;17.48;;;11.68;;
22441;SDS011;11388;54.456;9.752;2023-12-04T06:24:43;17.60;;;11.48;;
22441;SDS011;11388;54.456;9.752;2023-12-04T06:27:10;16.42;;;11.45;;
22441;SDS011;11388;54.456;9.752;2023-12-04T06:29:40;16.65;;;11.35;;
22441;SDS011;11388;54.456;9.752;2023-12-04T06:32:06;17.33;;;12.15;;
22441;SDS011;11388;54.456;9.752;2023-12-04T06:34:32;15.93;;;11.38;;
22441;SDS011;11388;54.456;9.752;2023-12-04T06:36:59;16.45;;;10.68;;
22441;SDS011;11388;54.456;9.752;2023-12-04T06:39:27;13.80;;;9.90;;
22441;SDS011;11388;54.456;9.752;2023-12-04T06:41:57;15.70;;;11.10;;
22441;SDS011;11388;54.456;9.752;2023-12-04T06:44:23;15.73;;;10.40;;
22441;SDS011;11388;54.456;9.752;2023-12-04T06:46:49;15.35;;;10.75;;
22441;SDS011;11388;54.456;9.752;2023-12-04T06:49:17;17.35;;;11.32;;
22441;SDS011;11388;54.456;9.752;2023-12-04T06:51:43;14.48;;;10.35;;
22441;SDS011;11388;54.456;9.752;2023-12-04T06:54:09;15.38;;;10.38;;
22441;SDS011;11388;54.456;9.752;2023-12-04T06:56:37;15.65;;;10.32;;
22441;SDS011;11388;54.456;9.752;2023-12-04T06:59:03;15.77;;;10.48;;
22441;SDS011;11388;54.456;9.752;2023-12-04T07:01:29;15.65;;;10.77;;
22441;SDS011;11388;54.456;9.752;2023-12-04T07:03:54;14.57;;;9.90;;
22441;SDS011;11388;54.456;9.752;2023-12-04T07:06:20;14.57;;;9.65;;
22441;SDS011;11388;54.456;9.752;2023-12-04T07:08:46;14.57;;;10.20;;
22441;SDS011;11388;54.456;9.752;2023-12-04T07:11:12;14.85;;;9.38;;
22441;SDS011;11388;54.456;9.752;2023-12-04T07:13:40;13.77;;;9.50;;
22441;SDS011;11388;54.456;9.752;2023-12-04T07:16:07;12.70;;;8.80;;
22441;SDS011;11388;54.456;9.752;2023-12-04T07:18:34;14.60;;;9.25;;
22441;SDS011;11388;54.456;9.752;2023-12-04T07:21:00;14.70;;;9.60;;
22441;SDS011;11388;54.456;9.752;2023-12-04T07:23:26;12.57;;;8.75;;
22441;SDS011;11388;54.456;9.752;2023-12-04T07:25:52;13.68;;;9.00;;
22441;SDS011;11388;54.456;9.752;2023-12-04T07:28:17;13.98;;;8.98;;
22441;SDS011;11388;54.456;9.752;2023-12-04T07:30:44;13.10;;;9.32;;
22441;SDS011;11388;54.456;9.752;2023-12-04T07:33:10;13.65;;;9.07;;
22441;SDS011;11388;54.456;9.752;2023-12-04T07:35:36;12.85;;;8.82;;
22441;SDS011;11388;54.456;9.752;2023-12-04T08:09:29;12.40;;;8.48;;
22441;SDS011;11388;54.456;9.752;2023-12-04T08:11:54;13.07;;;8.93;;
22441;SDS011;11388;54.456;9.752;2023-12-04T08:14:20;11.68;;;8.55;;
22441;SDS011;11388;54.456;9.752;2023-12-04T08:16:47;13.63;;;9.65;;
22441;SDS011;11388;54.456;9.752;2023-12-04T08:19:13;13.65;;;9.18;;
22441;SDS011;11388;54.456;9.752;2023-12-04T08:21:39;15.50;;;9.45;;
22441;SDS011;11388;54.456;9.752;2023-12-04T08:24:04;13.57;;;9.43;;
22441;SDS011;11388;54.456;9.752;2023-12-04T08:26:30;12.50;;;8.63;;
22441;SDS011;11388;54.456;9.752;2023-12-04T08:28:56;14.15;;;9.45;;
22441;SDS011;11388;54.456;9.752;2023-12-04T08:31:22;14.35;;;10.23;;
22441;SDS011;11388;54.456;9.752;2023-12-04T08:36:17;15.02;;;9.90;;
22441;SDS011;11388;54.456;9.752;2023-12-04T08:38:43;17.52;;;11.35;;
22441;SDS011;11388;54.456;9.752;2023-12-04T08:43:44;15.23;;;10.40;;
22441;SDS011;11388;54.456;9.752;2023-12-04T08:46:13;15.73;;;10.35;;
22441;SDS011;11388;54.456;9.752;2023-12-04T08:48:40;14.35;;;9.82;;
22441;SDS011;11388;54.456;9.752;2023-12-04T08:51:06;14.75;;;10.10;;
22441;SDS011;11388;54.456;9.752;2023-12-04T08:53:33;16.40;;;10.68;;
22441;SDS011;11388;54.456;9.752;2023-12-04T08:55:59;14.70;;;10.07;;
22441;SDS011;11388;54.456;9.752;2023-12-04T08:58:25;15.82;;;10.38;;
22441;SDS011;11388;54.456;9.752;2023-12-04T09:00:51;14.98;;;10.38;;
22441;SDS011;11388;54.456;9.752;2023-12-04T09:03:16;16.77;;;10.70;;
22441;SDS011;11388;54.456;9.752;2023-12-04T09:05:42;17.63;;;11.60;;
22441;SDS011;11388;54.456;9.752;2023-12-04T09:08:08;16.15;;;10.73;;
22441;SDS011;11388;54.456;9.752;2023-12-04T09:10:33;15.15;;;10.18;;
22441;SDS011;11388;54.456;9.752;2023-12-04T09:12:59;17.65;;;10.80;;
22441;SDS011;11388;54.456;9.752;2023-12-04T09:15:25;14.60;;;10.20;;
22441;SDS011;11388;54.456;9.752;2023-12-04T09:17:51;13.88;;;9.80;;
22441;SDS011;11388;54.456;9.752;2023-12-04T09:23:28;14.77;;;10.40;;
22441;SDS011;11388;54.456;9.752;2023-12-04T09:25:56;14.93;;;9.88;;
22441;SDS011;11388;54.456;9.752;2023-12-04T09:28:22;14.02;;;9.77;;
22441;SDS011;11388;54.456;9.752;2023-12-04T09:30:48;14.18;;;9.55;;
22441;SDS011;11388;54.456;9.752;2023-12-04T09:33:15;14.10;;;9.75;;
22441;SDS011;11388;54.456;9.752;2023-12-04T09:35:59;14.32;;;9.68;;
22441;SDS011;11388;54.456;9.752;2023-12-04T09:41:38;14.88;;;9.63;;
22441;SDS011;11388;54.456;9.752;2023-12-04T09:44:05;12.65;;;9.75;;
22441;SDS011;11388;54.456;9.752;2023-12-04T09:46:33;14.13;;;9.40;;
22441;SDS011;11388;54.456;9.752;2023-12-04T09:48:59;13.68;;;9.70;;
22441;SDS011;11388;54.456;9.752;2023-12-04T09:51:26;13.75;;;9.27;;
22441;SDS011;11388;54.456;9.752;2023-12-04T09:53:52;13.68;;;9.27;;
22441;SDS011;11388;54.456;9.752;2023-12-04T09:59:32;14.02;;;9.38;;
22441;SDS011;11388;54.456;9.752;2023-12-04T10:05:17;11.65;;;8.63;;
22441;SDS011;11388;54.456;9.752;2023-12-04T10:07:42;12.90;;;9.40;;
22441;SDS011;11388;54.456;9.752;2023-12-04T10:13:08;12.25;;;8.68;;
22441;SDS011;11388;54.456;9.752;2023-12-04T10:15:36;13.07;;;8.82;;
22441;SDS011;11388;54.456;9.752;2023-12-04T10:18:27;12.10;;;9.07;;
22441;SDS011;11388;54.456;9.752;2023-12-04T10:20:56;14.07;;;9.57;;
22441;SDS011;11388;54.456;9.752;2023-12-04T10:23:35;12.75;;;9.70;;
22441;SDS011;11388;54.456;9.752;2023-12-04T10:26:04;15.13;;;9.63;;
22441;SDS011;11388;54.456;9.752;2023-12-04T10:28:32;11.88;;;9.02;;
22441;SDS011;11388;54.456;9.752;2023-12-04T10:33:29;13.25;;;9.57;;
22441;SDS011;11388;54.456;9.752;2023-12-04T10:35:56;13.05;;;9.65;;
22441;SDS011;11388;54.456;9.752;2023-12-04T10:38:21;12.98;;;9.32;;
22441;SDS011;11388;54.456;9.752;2023-12-04T10:40:48;13.75;;;10.13;;
22441;SDS011;11388;54.456;9.752;2023-12-04T10:43:16;12.70;;;9.52;;
22441;SDS011;11388;54.456;9.752;2023-12-04T10:45:45;13.63;;;10.00;;
22441;SDS011;11388;54.456;9.752;2023-12-04T10:48:12;15.32;;;10.45;;
22441;SDS011;11388;54.456;9.752;2023-12-04T10:50:41;14.52;;;10.95;;
22441;SDS011;11388;54.456;9.752;2023-12-04T10:53:10;14.60;;;10.35;;
22441;SDS011;11388;54.456;9.752;2023-12-04T10:55:36;14.98;;;10.75;;
22441;SDS011;11388;54.456;9.752;2023-12-04T10:58:04;16.40;;;11.32;;
22441;SDS011;11388;54.456;9.752;2023-12-04T11:00:33;14.50;;;10.02;;
22441;SDS011;11388;54.456;9.752;2023-12-04T11:03:07;13.93;;;9.73;;
22441;SDS011;11388;54.456;9.752;2023-12-04T11:05:38;14.38;;;10.38;;
22441;SDS011;11388;54.456;9.752;2023-12-04T11:08:06;14.43;;;10.07;;
22441;SDS011;11388;54.456;9.752;2023-12-04T11:10:36;13.98;;;10.23;;
22441;SDS011;11388;54.456;9.752;2023-12-04T11:13:13;13.60;;;9.82;;
22441;SDS011;11388;54.456;9.752;2023-12-04T11:15:44;13.20;;;9.85;;
22441;SDS011;11388;54.456;9.752;2023-12-04T11:18:13;14.43;;;10.38;;
22441;SDS011;11388;54.456;9.752;2023-12-04T11:20:45;14.57;;;9.70;;
22441;SDS011;11388;54.456;9.752;2023-12-04T11:23:28;13.50;;;9.18;;
22441;SDS011;11388;54.456;9.752;2023-12-04T11:25:55;14.82;;;9.85;;
22441;SDS011;11388;54.456;9.752;2023-12-04T11:28:21;14.85;;;10.68;;
22441;SDS011;11388;54.456;9.752;2023-12-04T11:30:48;14.63;;;10.45;;
22441;SDS011;11388;54.456;9.752;2023-12-04T11:33:15;13.00;;;9.90;;
22441;SDS011;11388;54.456;9.752;2023-12-04T11:35:41;13.98;;;10.02;;
22441;SDS011;11388;54.456;9.752;2023-12-04T11:38:06;13.35;;;9.65;;
22441;SDS011;11388;54.456;9.752;2023-12-04T11:40:34;13.65;;;10.35;;
22441;SDS011;11388;54.456;9.752;2023-12-04T11:46:09;15.80;;;10.73;;
22441;SDS011;11388;54.456;9.752;2023-12-04T11:48:38;16.30;;;10.77;;
22441;SDS011;11388;54.456;9.752;2023-12-04T11:51:07;13.75;;;9.98;;
22441;SDS011;11388;54.456;9.752;2023-12-04T11:53:39;14.02;;;9.88;;
22441;SDS011;11388;54.456;9.752;2023-12-04T11:56:09;15.07;;;10.27;;
22441;SDS011;11388;54.456;9.752;2023-12-04T11:58:43;14.82;;;10.70;;
22441;SDS011;11388;54.456;9.752;2023-12-04T12:01:09;14.52;;;10.73;;
22441;SDS011;11388;54.456;9.752;2023-12-04T12:03:35;15.00;;;10.82;;
22441;SDS011;11388;54.456;9.752;2023-12-04T12:09:27;14.70;;;10.30;;
22441;SDS011;11388;54.456;9.752;2023-12-04T12:15:12;14.98;;;9.98;;
22441;SDS011;11388;54.456;9.752;2023-12-04T12:17:41;13.80;;;10.30;;
22441;SDS011;11388;54.456;9.752;2023-12-04T12:20:07;14.32;;;10.45;;
22441;SDS011;11388;54.456;9.752;2023-12-04T12:22:35;15.00;;;10.88;;
22441;SDS011;11388;54.456;9.752;2023-12-04T12:25:08;17.33;;;11.02;;
22441;SDS011;11388;54.456;9.752;2023-12-04T12:27:34;14.40;;;10.65;;
22441;SDS011;11388;54.456;9.752;2023-12-04T12:30:00;16.83;;;11.05;;
22441;SDS011;11388;54.456;9.752;2023-12-04T12:32:37;15.15;;;11.20;;
22441;SDS011;11388;54.456;9.752;2023-12-04T12:38:12;15.52;;;11.27;;
22441;SDS011;11388;54.456;9.752;2023-12-04T12:40:38;14.32;;;10.40;;
22441;SDS011;11388;54.456;9.752;2023-12-04T12:43:21;14.65;;;11.07;;
22441;SDS011;11388;54.456;9.752;2023-12-04T12:45:48;14.15;;;10.77;;
22441;SDS011;11388;54.456;9.752;2023-12-04T12:48:14;15.70;;;11.45;;
22441;SDS011;11388;54.456;9.752;2023-12-04T12:50:44;15.20;;;10.50;;
22441;SDS011;11388;54.456;9.752;2023-12-04T12:53:11;14.48;;;10.68;;
22441;SDS011;11388;54.456;9.752;2023-12-04T12:55:40;15.45;;;11.20;;
22441;SDS011;11388;54.456;9.752;2023-12-04T12:58:06;16.02;;;11.90;;
22441;SDS011;11388;54.456;9.752;2023-12-04T13:00:35;15.43;;;11.40;;
22441;SDS011;11388;54.456;9.752;2023-12-04T13:03:03;16.85;;;12.07;;
22441;SDS011;11388;54.456;9.752;2023-12-04T13:05:28;16.42;;;12.20;;
22441;SDS011;11388;54.456;9.752;2023-12-04T13:07:54;16.20;;;11.88;;
22441;SDS011;11388;54.456;9.752;2023-12-04T13:10:23;17.40;;;12.27;;
22441;SDS011;11388;54.456;9.752;2023-12-04T13:12:49;22.13;;;14.63;;
22441;SDS011;11388;54.456;9.752;2023-12-04T13:15:20;17.45;;;12.65;;
22441;SDS011;11388;54.456;9.752;2023-12-04T13:17:46;15.40;;;11.15;;
22441;SDS011;11388;54.456;9.752;2023-12-04T13:20:11;15.75;;;11.25;;
22441;SDS011;11388;54.456;9.752;2023-12-04T13:22:38;14.75;;;11.05;;
22441;SDS011;11388;54.456;9.752;2023-12-04T13:25:05;17.38;;;12.23;;
22441;SDS011;11388;54.456;9.752;2023-12-04T13:27:35;16.88;;;11.60;;
22441;SDS011;11388;54.456;9.752;2023-12-04T13:32:54;17.10;;;11.05;;
22441;SDS011;11388;54.456;9.752;2023-12-04T13:35:20;15.98;;;11.82;;
22441;SDS011;11388;54.456;9.752;2023-12-04T13:37:46;17.17;;;12.23;;
22441;SDS011;11388;54.456;9.752;2023-12-04T14:03:29;14.88;;;11.52;;
22441;SDS011;11388;54.456;9.752;2023-12-04T14:05:55;15.95;;;11.20;;
22441;SDS011;11388;54.456;9.752;2023-12-04T14:08:21;16.77;;;11.65;;
22441;SDS011;11388;54.456;9.752;2023-12-04T14:10:47;16.23;;;11.82;;
22441;SDS011;11388;54.456;9.752;2023-12-04T14:13:12;16.55;;;11.98;;
22441;SDS011;11388;54.456;9.752;2023-12-04T14:15:38;15.52;;;11.50;;
22441;SDS011;11388;54.456;9.752;2023-12-04T14:18:04;15.00;;;11.45;;
22441;SDS011;11388;54.456;9.752;2023-12-04T14:20:30;16.75;;;12.13;;
22441;SDS011;11388;54.456;9.752;2023-12-04T14:22:56;17.30;;;11.70;;
22441;SDS011;11388;54.456;9.752;2023-12-04T14:25:21;17.27;;;11.52;;
22441;SDS011;11388;54.456;9.752;2023-12-04T14:27:47;17.38;;;12.23;;
22441;SDS011;11388;54.456;9.752;2023-12-04T14:30:13;17.20;;;11.77;;
22441;SDS011;11388;54.456;9.752;2023-12-04T14:32:39;16.00;;;11.18;;
22441;SDS011;11388;54.456;9.752;2023-12-04T14:35:06;16.40;;;12.15;;
22441;SDS011;11388;54.456;9.752;2023-12-04T14:40:20;14.80;;;11.35;;
22441;SDS011;11388;54.456;9.752;2023-12-04T14:42:46;15.98;;;11.70;;
22441;SDS011;11388;54.456;9.752;2023-12-04T14:45:12;15.25;;;11.40;;
22441;SDS011;11388;54.456;9.752;2023-12-04T14:47:39;15.13;;;11.60;;
22441;SDS011;11388;54.456;9.752;2023-12-04T14:52:41;16.05;;;11.23;;
22441;SDS011;11388;54.456;9.752;2023-12-04T14:55:14;15.45;;;11.48;;
22441;SDS011;11388;54.456;9.752;2023-12-04T15:21:35;15.05;;;10.98;;
22441;SDS011;11388;54.456;9.752;2023-12-04T15:30:48;16.42;;;11.60;;
22441;SDS011;11388;54.456;9.752;2023-12-04T15:33:26;16.42;;;11.05;;
22441;SDS011;11388;54.456;9.752;2023-12-04T15:35:55;15.23;;;11.25;;
22441;SDS011;11388;54.456;9.752;2023-12-04T15:38:29;17.33;;;12.07;;
22441;SDS011;11388;54.456;9.752;2023-12-04T15:40:57;15.68;;;11.52;;
22441;SDS011;11388;54.456;9.752;2023-12-04T15:43:23;15.18;;;11.40;;
22441;SDS011;11388;54.456;9.752;2023-12-04T15:45:52;15.38;;;11.43;;
22441;SDS011;11388;54.456;9.752;2023-12-04T15:48:21;16.35;;;11.35;;
22441;SDS011;11388;54.456;9.752;2023-12-04T15:53:29;14.35;;;10.52;;
22441;SDS011;11388;54.456;9.752;2023-12-04T15:55:59;17.02;;;11.27;;
22441;SDS011;11388;54.456;9.752;2023-12-04T15:58:47;15.73;;;10.70;;
22441;SDS011;11388;54.456;9.752;2023-12-04T16:01:16;15.05;;;10.80;;
22441;SDS011;11388;54.456;9.752;2023-12-04T16:27:43;16.73;;;12.82;;
22441;SDS011;11388;54.456;9.752;2023-12-04T16:48:17;15.20;;;11.40;;
22441;SDS011;11388;54.456;9.752;2023-12-04T16:50:52;15.85;;;11.77;;
22441;SDS011;11388;54.456;9.752;2023-12-04T16:53:18;17.58;;;12.98;;
22441;SDS011;11388;54.456;9.752;2023-12-04T16:55:43;19.00;;;13.95;;
22441;SDS011;11388;54.456;9.752;2023-12-04T16:58:09;16.63;;;12.52;;
22441;SDS011;11388;54.456;9.752;2023-12-04T17:00:35;16.63;;;12.18;;
22441;SDS011;11388;54.456;9.752;2023-12-04T17:03:01;16.05;;;12.02;;
22441;SDS011;11388;54.456;9.752;2023-12-04T17:05:26;16.45;;;12.30;;
22441;SDS011;11388;54.456;9.752;2023-12-04T17:10:47;16.90;;;12.35;;
22441;SDS011;11388;54.456;9.752;2023-12-04T17:13:13;16.98;;;12.68;;
22441;SDS011;11388;54.456;9.752;2023-12-04T17:26:04;15.95;;;11.68;;
22441;SDS011;11388;54.456;9.752;2023-12-04T17:31:34;16.45;;;11.85;;
22441;SDS011;11388;54.456;9.752;2023-12-04T17:34:00;16.05;;;11.93;;
22441;SDS011;11388;54.456;9.752;2023-12-04T17:36:26;16.58;;;12.35;;
22441;SDS011;11388;54.456;9.752;2023-12-04T17:38:54;16.70;;;12.10;;
22441;SDS011;11388;54.456;9.752;2023-12-04T17:41:20;15.20;;;11.40;;